createdAt,value
2018-02-25T00:00:50.819Z,3.10
2018-02-25T00:01:56.024Z,4.60
2018-02-25T00:03:00.469Z,3.95
2018-02-25T00:04:05.342Z,3.50
2018-02-25T00:05:09.801Z,4.12
2018-02-25T00:06:14.243Z,3.85
2018-02-25T00:07:18.678Z,3.33
2018-02-25T00:08:23.113Z,3.42
2018-02-25T00:09:27.548Z,3.25
2018-02-25T00:10:32.022Z,4.37
2018-02-25T00:11:36.464Z,3.58
2018-02-25T00:12:41.669Z,4.35
2018-02-25T00:13:46.111Z,3.37
2018-02-25T00:14:50.551Z,3.10
2018-02-25T00:15:55.009Z,3.75
2018-02-25T00:17:00.209Z,4.32
2018-02-25T00:18:04.651Z,4.12
2018-02-25T00:19:09.852Z,4.10
2018-02-25T00:20:14.283Z,3.45
2018-02-25T00:21:18.549Z,3.87
2018-02-25T00:22:30.098Z,3.50
2018-02-25T00:23:34.547Z,3.58
2018-02-25T00:24:38.976Z,3.10
2018-02-25T00:25:43.413Z,3.30
2018-02-25T00:26:48.636Z,3.20
2018-02-25T00:27:54.029Z,2.72
2018-02-25T00:28:58.461Z,3.80
2018-02-25T00:30:02.901Z,3.58
2018-02-25T00:31:08.099Z,4.00
2018-02-25T00:32:12.556Z,3.53
2018-02-25T00:33:17.000Z,4.22
2018-02-25T00:34:21.433Z,3.25
2018-02-25T00:35:25.875Z,4.03
2018-02-25T00:36:31.089Z,4.55
2018-02-25T00:37:35.534Z,4.47
2018-02-25T00:38:39.979Z,3.70
2018-02-25T00:39:44.632Z,3.53
2018-02-25T00:40:49.301Z,4.15
2018-02-25T00:41:54.000Z,3.62
2018-02-25T00:42:59.571Z,3.60
2018-02-25T00:44:04.094Z,4.60
2018-02-25T00:45:08.687Z,4.05
2018-02-25T00:46:13.445Z,4.32
2018-02-25T00:47:18.121Z,2.87
2018-02-25T00:48:22.590Z,4.60
2018-02-25T00:49:27.024Z,2.97
2018-02-25T00:50:31.470Z,4.28
2018-02-25T00:51:35.729Z,3.80
2018-02-25T00:52:40.261Z,4.65
2018-02-25T00:53:44.541Z,3.83
2018-02-25T00:54:48.798Z,3.10
2018-02-25T00:55:53.225Z,3.83
2018-02-25T00:56:57.470Z,3.22
2018-02-25T00:58:01.902Z,4.25
2018-02-25T00:59:06.364Z,3.97
2018-02-25T01:00:11.562Z,3.22
2018-02-25T01:01:16.005Z,3.70
2018-02-25T01:02:21.199Z,3.20
2018-02-25T01:03:25.664Z,3.95
2018-02-25T01:04:30.121Z,3.33
2018-02-25T01:05:34.563Z,2.95
2018-02-25T01:06:39.768Z,4.40
2018-02-25T01:07:44.197Z,3.90
2018-02-25T01:08:49.609Z,3.72
2018-02-25T01:09:54.072Z,4.07
2018-02-25T01:10:58.505Z,3.97
2018-02-25T01:12:02.941Z,3.75
2018-02-25T01:13:07.389Z,3.83
2018-02-25T01:14:12.589Z,3.90
2018-02-25T01:15:17.041Z,3.58
2018-02-25T01:16:21.480Z,4.35
2018-02-25T01:17:25.913Z,3.45
2018-02-25T01:18:30.349Z,3.80
2018-02-25T01:19:35.546Z,2.87
2018-02-25T01:20:40.000Z,4.40
2018-02-25T01:21:45.197Z,4.05
2018-02-25T01:22:49.636Z,4.12
2018-02-25T01:23:54.837Z,3.90
2018-02-25T01:24:59.271Z,4.20
2018-02-25T01:26:04.492Z,3.80
2018-02-25T01:27:09.693Z,4.20
2018-02-25T01:28:14.135Z,4.37
2018-02-25T01:29:19.365Z,4.10
2018-02-25T01:30:24.577Z,3.70
2018-02-25T01:31:29.035Z,3.78
2018-02-25T01:32:33.465Z,3.90
2018-02-25T01:33:37.907Z,3.90
2018-02-25T01:34:42.357Z,4.00
2018-02-25T01:35:47.130Z,4.35
2018-02-25T01:36:51.574Z,4.78
2018-02-25T01:37:56.773Z,4.53
2018-02-25T01:39:01.205Z,4.90
2018-02-25T01:40:06.422Z,4.00
2018-02-25T01:41:10.855Z,4.10
2018-02-25T01:42:15.310Z,3.95
2018-02-25T01:43:19.742Z,3.80
2018-02-25T01:44:24.180Z,3.60
2018-02-25T01:45:29.386Z,4.35
2018-02-25T01:46:33.831Z,3.70
2018-02-25T01:47:38.120Z,3.55
2018-02-25T01:48:43.309Z,4.30
2018-02-25T01:49:47.737Z,4.10
2018-02-25T01:51:03.236Z,3.53
2018-02-25T01:52:08.434Z,4.20
2018-02-25T01:53:12.885Z,4.60
2018-02-25T01:54:17.325Z,4.60
2018-02-25T01:55:21.765Z,3.87
2018-02-25T01:56:26.193Z,5.25
2018-02-25T01:57:30.622Z,4.28
2018-02-25T01:58:35.847Z,4.40
2018-02-25T01:59:41.046Z,4.15
2018-02-25T02:00:45.158Z,4.15
2018-02-25T02:01:49.591Z,4.47
2018-02-25T02:02:54.790Z,4.22
2018-02-25T02:04:00.753Z,3.70
2018-02-25T02:05:05.974Z,3.85
2018-02-25T02:06:09.741Z,4.30
2018-02-25T02:07:14.181Z,4.18
2018-02-25T02:08:19.384Z,4.05
2018-02-25T02:09:23.848Z,4.00
2018-02-25T02:10:28.277Z,4.25
2018-02-25T02:11:32.711Z,4.30
2018-02-25T02:12:37.145Z,4.00
2018-02-25T02:13:41.584Z,4.20
2018-02-25T02:14:46.413Z,4.15
2018-02-25T02:15:51.602Z,4.30
2018-02-25T02:16:56.041Z,4.40
2018-02-25T02:18:01.241Z,4.57
2018-02-25T02:19:05.687Z,3.72
2018-02-25T02:20:10.238Z,5.20
2018-02-25T02:21:14.669Z,4.82
2018-02-25T02:22:19.119Z,3.60
2018-02-25T02:23:23.553Z,4.45
2018-02-25T02:24:27.982Z,4.00
2018-02-25T02:25:32.437Z,4.20
2018-02-25T02:26:37.645Z,4.07
2018-02-25T02:27:42.079Z,3.55
2018-02-25T02:28:47.273Z,2.97
2018-02-25T02:29:51.938Z,4.57
2018-02-25T02:30:57.153Z,4.25
2018-02-25T02:32:01.585Z,4.20
2018-02-25T02:33:06.023Z,3.80
2018-02-25T02:34:10.493Z,3.85
2018-02-25T02:35:15.687Z,3.70
2018-02-25T02:36:20.175Z,3.90
2018-02-25T02:37:24.810Z,4.50
2018-02-25T02:38:29.261Z,3.80
2018-02-25T02:39:33.718Z,4.25
2018-02-25T02:40:38.144Z,3.70
2018-02-25T02:41:42.611Z,4.45
2018-02-25T02:42:47.059Z,3.78
2018-02-25T02:43:51.304Z,4.28
2018-02-25T02:44:55.738Z,3.97
2018-02-25T02:46:00.178Z,4.00
2018-02-25T02:47:04.450Z,3.50
2018-02-25T02:48:08.869Z,4.35
2018-02-25T02:49:13.518Z,3.53
2018-02-25T02:50:17.951Z,4.10
2018-02-25T02:51:23.150Z,4.50
2018-02-25T02:52:27.618Z,4.18
2018-02-25T02:53:32.054Z,3.60
2018-02-25T02:54:36.515Z,3.67
2018-02-25T02:55:40.937Z,4.95
2018-02-25T02:56:45.212Z,4.03
2018-02-25T02:57:49.661Z,4.40
2018-02-25T02:58:54.101Z,4.82
2018-02-25T02:59:58.530Z,4.32
2018-02-25T03:01:02.962Z,4.55
2018-02-25T03:02:07.411Z,4.05
2018-02-25T03:03:11.875Z,4.10
2018-02-25T03:04:16.127Z,4.55
2018-02-25T03:05:20.561Z,5.47
2018-02-25T03:06:25.013Z,4.15
2018-02-25T03:07:29.449Z,4.72
2018-02-25T03:08:33.902Z,4.72
2018-02-25T03:09:38.341Z,4.30
2018-02-25T03:10:42.792Z,4.20
2018-02-25T03:11:47.337Z,3.83
2018-02-25T03:12:51.778Z,3.75
2018-02-25T03:13:57.010Z,4.72
2018-02-25T03:15:01.461Z,3.87
2018-02-25T03:16:05.893Z,4.28
2018-02-25T03:17:10.337Z,3.70
2018-02-25T03:18:14.766Z,4.37
2018-02-25T03:19:19.992Z,3.47
2018-02-25T03:20:25.222Z,3.65
2018-02-25T03:21:30.421Z,3.85
2018-02-25T03:22:34.898Z,4.32
2018-02-25T03:23:39.346Z,3.45
2018-02-25T03:24:43.785Z,4.40
2018-02-25T03:25:49.008Z,4.32
2018-02-25T03:26:53.465Z,4.25
2018-02-25T03:27:57.909Z,3.90
2018-02-25T03:29:02.174Z,4.20
2018-02-25T03:30:06.689Z,3.90
2018-02-25T03:31:11.130Z,3.22
2018-02-25T03:32:15.573Z,3.85
2018-02-25T03:33:20.602Z,4.60
2018-02-25T03:34:25.620Z,3.55
2018-02-25T03:35:30.087Z,4.45
2018-02-25T03:36:34.524Z,3.60
2018-02-25T03:37:38.953Z,3.95
2018-02-25T03:38:44.153Z,5.07
2018-02-25T03:39:48.598Z,3.80
2018-02-25T03:40:54.152Z,4.15
2018-02-25T03:41:58.274Z,3.25
2018-02-25T03:43:02.729Z,4.12
2018-02-25T03:44:07.162Z,3.72
2018-02-25T03:45:12.377Z,4.12
2018-02-25T03:46:16.829Z,4.50
2018-02-25T03:47:21.265Z,4.10
2018-02-25T03:48:25.701Z,4.18
2018-02-25T03:49:30.134Z,4.90
2018-02-25T03:50:35.325Z,4.62
2018-02-25T03:51:39.792Z,5.10
2018-02-25T03:52:44.237Z,4.32
2018-02-25T03:53:48.682Z,3.97
2018-02-25T03:54:53.110Z,4.85
2018-02-25T03:55:57.558Z,3.85
2018-02-25T03:57:02.018Z,4.07
2018-02-25T03:58:07.212Z,4.65
2018-02-25T03:59:11.644Z,4.10
2018-02-25T04:00:16.085Z,4.30
2018-02-25T04:01:20.523Z,4.05
2018-02-25T04:02:24.979Z,4.37
2018-02-25T04:03:29.416Z,4.37
2018-02-25T04:04:33.853Z,4.50
2018-02-25T04:05:38.286Z,3.70
2018-02-25T04:06:42.726Z,3.47
2018-02-25T04:07:47.621Z,4.40
2018-02-25T04:08:52.057Z,4.05
2018-02-25T04:09:56.724Z,3.72
2018-02-25T04:11:01.139Z,4.93
2018-02-25T04:12:05.605Z,4.75
2018-02-25T04:13:10.057Z,4.32
2018-02-25T04:14:14.300Z,3.92
2018-02-25T04:15:18.733Z,4.00
2018-02-25T04:16:23.942Z,4.75
2018-02-25T04:17:28.431Z,3.67
2018-02-25T04:18:32.888Z,4.03
2018-02-25T04:19:38.110Z,4.47
2018-02-25T04:20:43.383Z,4.70
2018-02-25T04:21:47.885Z,4.80
2018-02-25T04:22:52.325Z,5.10
2018-02-25T04:23:56.803Z,4.03
2018-02-25T04:25:01.250Z,4.40
2018-02-25T04:26:05.860Z,4.32
2018-02-25T04:27:10.301Z,4.40
2018-02-25T04:28:15.517Z,5.28
2018-02-25T04:29:19.981Z,4.18
2018-02-25T04:30:24.414Z,5.03
2018-02-25T04:31:28.853Z,4.57
2018-02-25T04:32:34.063Z,4.50
2018-02-25T04:33:38.501Z,4.35
2018-02-25T04:34:43.730Z,4.45
2018-02-25T04:35:49.670Z,5.20
2018-02-25T04:36:54.103Z,4.18
2018-02-25T04:37:59.310Z,4.62
2018-02-25T04:39:03.864Z,4.50
2018-02-25T04:40:08.320Z,4.82
2018-02-25T04:41:12.782Z,5.03
2018-02-25T04:42:17.229Z,4.30
2018-02-25T04:43:21.663Z,4.30
2018-02-25T04:44:26.100Z,4.85
2018-02-25T04:45:31.325Z,4.68
2018-02-25T04:46:36.529Z,4.53
2018-02-25T04:47:40.974Z,4.82
2018-02-25T04:48:45.405Z,6.22
2018-02-25T04:49:49.842Z,4.43
2018-02-25T04:50:54.120Z,4.50
2018-02-25T04:51:58.553Z,4.70
2018-02-25T04:53:02.996Z,4.90
2018-02-25T04:54:07.434Z,4.45
2018-02-25T04:55:11.875Z,4.78
2018-02-25T04:56:16.150Z,4.37
2018-02-25T04:57:20.596Z,4.00
2018-02-25T04:58:25.022Z,4.35
2018-02-25T04:59:29.458Z,5.35
2018-02-25T05:00:34.665Z,4.90
2018-02-25T05:01:39.133Z,4.60
2018-02-25T05:02:43.575Z,4.25
2018-02-25T05:03:48.009Z,4.45
2018-02-25T05:04:52.454Z,3.90
2018-02-25T05:05:56.885Z,4.30
2018-02-25T05:07:01.361Z,3.60
2018-02-25T05:08:06.569Z,3.60
2018-02-25T05:09:11.002Z,4.70
2018-02-25T05:10:16.201Z,4.15
2018-02-25T05:11:20.642Z,3.53
2018-02-25T05:12:25.149Z,3.95
2018-02-25T05:13:30.366Z,5.35
2018-02-25T05:14:34.798Z,4.78
2018-02-25T05:15:40.003Z,4.30
2018-02-25T05:16:44.266Z,5.12
2018-02-25T05:17:48.733Z,4.47
2018-02-25T05:18:53.940Z,5.20
2018-02-25T05:19:58.365Z,5.47
2018-02-25T05:21:02.874Z,4.07
2018-02-25T05:22:07.309Z,4.78
2018-02-25T05:23:12.529Z,4.50
2018-02-25T05:24:16.793Z,4.30
2018-02-25T05:25:21.046Z,4.30
2018-02-25T05:26:26.248Z,5.55
2018-02-25T05:27:30.737Z,3.97
2018-02-25T05:28:35.921Z,4.60
2018-02-25T05:29:40.366Z,4.60
2018-02-25T05:30:44.802Z,4.60
2018-02-25T05:31:49.810Z,4.12
2018-02-25T05:32:54.237Z,4.82
2018-02-25T05:33:58.941Z,5.57
2018-02-25T05:35:03.410Z,5.90
2018-02-25T05:36:07.850Z,4.60
2018-02-25T05:37:12.286Z,5.05
2018-02-25T05:38:16.733Z,5.25
2018-02-25T05:39:21.966Z,4.22
2018-02-25T05:40:26.401Z,5.80
2018-02-25T05:41:30.826Z,5.32
2018-02-25T05:42:35.307Z,5.43
2018-02-25T05:43:39.905Z,5.28
2018-02-25T05:44:45.133Z,5.93
2018-02-25T05:45:49.558Z,5.30
2018-02-25T05:46:53.996Z,6.72
2018-02-25T05:47:58.435Z,5.47
2018-02-25T05:49:02.910Z,5.65
2018-02-25T05:50:07.402Z,5.80
2018-02-25T05:51:12.588Z,5.85
2018-02-25T05:52:17.030Z,5.00
2018-02-25T05:53:21.453Z,5.90
2018-02-25T05:54:25.902Z,5.57
2018-02-25T05:55:30.374Z,5.20
2018-02-25T05:56:34.806Z,6.12
2018-02-25T05:57:39.250Z,5.87
2018-02-25T05:58:43.673Z,5.85
2018-02-25T05:59:48.118Z,6.37
2018-02-25T06:00:52.566Z,6.00
2018-02-25T06:01:57.001Z,5.47
2018-02-25T06:03:01.420Z,6.20
2018-02-25T06:04:06.633Z,6.70
2018-02-25T06:05:11.085Z,4.90
2018-02-25T06:06:15.552Z,5.57
2018-02-25T06:07:19.981Z,5.60
2018-02-25T06:08:25.191Z,6.45
2018-02-25T06:09:29.629Z,5.95
2018-02-25T06:10:34.863Z,5.40
2018-02-25T06:11:40.082Z,5.32
2018-02-25T06:12:45.291Z,6.53
2018-02-25T06:13:49.718Z,5.78
2018-02-25T06:14:54.603Z,5.28
2018-02-25T06:15:59.028Z,5.28
2018-02-25T06:17:03.481Z,6.60
2018-02-25T06:18:07.926Z,6.22
2018-02-25T06:19:12.361Z,6.78
2018-02-25T06:20:16.610Z,5.90
2018-02-25T06:21:21.806Z,6.10
2018-02-25T06:22:26.274Z,6.22
2018-02-25T06:23:30.709Z,5.85
2018-02-25T06:24:35.141Z,5.93
2018-02-25T06:25:39.571Z,6.07
2018-02-25T06:26:44.394Z,6.10
2018-02-25T06:27:49.602Z,6.78
2018-02-25T06:28:54.073Z,6.22
2018-02-25T06:29:58.512Z,7.40
2018-02-25T06:31:02.946Z,6.50
2018-02-25T06:32:07.183Z,5.85
2018-02-25T06:33:11.639Z,6.10
2018-02-25T06:34:16.081Z,6.00
2018-02-25T06:35:21.278Z,6.57
2018-02-25T06:36:25.713Z,7.30
2018-02-25T06:37:30.926Z,7.20
2018-02-25T06:38:35.382Z,5.80
2018-02-25T06:39:39.818Z,5.70
2018-02-25T06:40:44.270Z,5.80
2018-02-25T06:41:48.701Z,5.40
2018-02-25T06:42:53.151Z,6.05
2018-02-25T06:43:57.664Z,5.93
2018-02-25T06:45:01.898Z,5.43
2018-02-25T06:46:06.327Z,5.05
2018-02-25T06:47:11.533Z,5.85
2018-02-25T06:48:16.198Z,5.60
2018-02-25T06:49:20.649Z,5.47
2018-02-25T06:50:25.082Z,5.22
2018-02-25T06:51:29.513Z,6.07
2018-02-25T06:52:34.698Z,5.47
2018-02-25T06:53:39.121Z,5.53
2018-02-25T06:54:43.566Z,6.05
2018-02-25T06:55:48.000Z,5.80
2018-02-25T06:56:52.424Z,5.07
2018-02-25T06:57:57.182Z,6.30
2018-02-25T06:59:02.381Z,6.30
2018-02-25T07:00:06.833Z,6.03
2018-02-25T07:01:12.051Z,6.30
2018-02-25T07:02:17.267Z,6.22
2018-02-25T07:03:21.704Z,6.45
2018-02-25T07:04:26.141Z,6.45
2018-02-25T07:05:30.589Z,5.90
2018-02-25T07:06:35.030Z,6.20
2018-02-25T07:07:40.237Z,5.93
2018-02-25T07:08:44.678Z,6.62
2018-02-25T07:09:49.878Z,6.47
2018-02-25T07:10:54.337Z,5.80
2018-02-25T07:11:58.769Z,5.93
2018-02-25T07:13:03.210Z,5.50
2018-02-25T07:14:07.310Z,6.18
2018-02-25T07:15:11.739Z,5.82
2018-02-25T07:16:16.969Z,4.25
2018-02-25T07:17:22.166Z,4.28
2018-02-25T07:18:26.602Z,5.68
2018-02-25T07:19:31.801Z,4.35
2018-02-25T07:20:36.251Z,6.32
2018-02-25T07:21:41.481Z,5.47
2018-02-25T07:22:46.673Z,3.50
2018-02-25T07:23:50.917Z,4.20
2018-02-25T07:24:55.363Z,4.18
2018-02-25T07:25:59.793Z,6.32
2018-02-25T07:27:04.260Z,6.68
2018-02-25T07:28:08.707Z,6.22
2018-02-25T07:29:13.181Z,5.95
2018-02-25T07:30:17.626Z,4.53
2018-02-25T07:31:22.050Z,4.97
2018-02-25T07:32:26.510Z,6.25
2018-02-25T07:33:30.945Z,6.05
2018-02-25T07:34:35.376Z,5.95
2018-02-25T07:35:39.806Z,6.07
2018-02-25T07:36:44.248Z,4.25
2018-02-25T07:37:48.702Z,6.05
2018-02-25T07:38:53.144Z,4.72
2018-02-25T07:39:58.345Z,3.60
2018-02-25T07:41:02.777Z,3.65
2018-02-25T07:42:07.221Z,4.12
2018-02-25T07:43:12.454Z,4.47
2018-02-25T07:44:17.663Z,3.37
2018-02-25T07:45:22.103Z,3.87
2018-02-25T07:46:27.293Z,4.10
2018-02-25T07:47:31.739Z,2.47
2018-02-25T07:48:36.969Z,3.50
2018-02-25T07:49:41.409Z,2.45
2018-02-25T07:50:45.847Z,3.62
2018-02-25T07:51:50.273Z,4.45
2018-02-25T07:52:54.730Z,4.50
2018-02-25T07:53:59.184Z,5.10
2018-02-25T07:55:03.626Z,5.72
2018-02-25T07:56:08.831Z,5.75
2018-02-25T07:57:14.142Z,4.35
2018-02-25T07:58:18.564Z,4.43
2018-02-25T07:59:23.023Z,4.80
2018-02-25T08:00:27.460Z,4.35
2018-02-25T08:01:31.904Z,5.80
2018-02-25T08:02:36.342Z,4.93
2018-02-25T08:03:41.534Z,6.28
2018-02-25T08:04:45.987Z,5.60
2018-02-25T08:05:51.194Z,4.35
2018-02-25T08:06:55.621Z,5.35
2018-02-25T08:08:00.833Z,5.05
2018-02-25T08:09:05.715Z,4.70
2018-02-25T08:10:10.501Z,3.78
2018-02-25T08:11:15.685Z,5.70
2018-02-25T08:12:20.124Z,4.68
2018-02-25T08:13:24.566Z,5.70
2018-02-25T08:14:28.998Z,6.12
2018-02-25T08:15:33.452Z,4.80
2018-02-25T08:16:38.647Z,4.50
2018-02-25T08:17:43.073Z,6.35
2018-02-25T08:18:47.494Z,5.70
2018-02-25T08:19:52.690Z,3.60
2018-02-25T08:20:57.220Z,5.22
2018-02-25T08:22:01.722Z,5.18
2018-02-25T08:23:05.962Z,4.85
2018-02-25T08:24:11.048Z,5.18
2018-02-25T08:25:16.375Z,5.65
2018-02-25T08:26:20.839Z,6.35
2018-02-25T08:27:25.265Z,6.60
2018-02-25T08:28:29.681Z,5.90
2018-02-25T08:29:34.119Z,4.85
2018-02-25T08:30:38.549Z,6.68
2018-02-25T08:31:43.011Z,6.80
2018-02-25T08:32:47.427Z,5.40
2018-02-25T08:33:51.856Z,5.82
2018-02-25T08:34:56.682Z,5.68
2018-02-25T08:36:01.098Z,6.95
2018-02-25T08:37:05.554Z,5.95
2018-02-25T08:38:10.003Z,5.57
2018-02-25T08:39:14.426Z,6.78
2018-02-25T08:40:18.864Z,6.20
2018-02-25T08:41:23.293Z,7.78
2018-02-25T08:42:28.511Z,8.55
2018-02-25T08:43:33.734Z,6.05
2018-02-25T08:44:38.155Z,7.30
2018-02-25T08:45:43.378Z,7.62
2018-02-25T08:46:47.901Z,5.18
2018-02-25T08:47:53.159Z,6.10
2018-02-25T08:48:57.677Z,5.80
2018-02-25T08:50:02.133Z,5.80
2018-02-25T08:51:06.605Z,5.93
2018-02-25T08:52:11.264Z,5.85
2018-02-25T08:53:15.706Z,4.70
2018-02-25T08:54:20.300Z,5.30
2018-02-25T08:55:24.709Z,5.32
2018-02-25T08:56:29.714Z,5.72
2018-02-25T08:57:34.146Z,6.20
2018-02-25T08:58:38.248Z,5.10
2018-02-25T08:59:43.450Z,5.20
2018-02-25T09:00:47.950Z,4.70
2018-02-25T09:01:52.410Z,3.85
2018-02-25T09:02:57.604Z,3.60
2018-02-25T09:04:02.149Z,3.60
2018-02-25T09:05:07.395Z,4.18
2018-02-25T09:06:11.815Z,4.37
2018-02-25T09:07:16.343Z,5.10
2018-02-25T09:08:20.782Z,4.68
2018-02-25T09:09:25.305Z,3.30
2018-02-25T09:10:29.779Z,4.32
2018-02-25T09:11:34.248Z,4.28
2018-02-25T09:12:38.718Z,3.58
2018-02-25T09:13:43.349Z,4.53
2018-02-25T09:14:47.805Z,4.85
2018-02-25T09:15:52.246Z,4.15
2018-02-25T09:16:56.824Z,3.80
2018-02-25T09:18:01.280Z,4.20
2018-02-25T09:19:05.733Z,4.10
2018-02-25T09:20:10.970Z,5.18
2018-02-25T09:21:15.416Z,3.05
2018-02-25T09:22:20.805Z,3.50
2018-02-25T09:23:26.905Z,4.62
2018-02-25T09:24:31.374Z,4.18
2018-02-25T09:25:36.681Z,5.18
2018-02-25T09:26:41.897Z,4.05
2018-02-25T09:27:46.322Z,3.65
2018-02-25T09:28:51.637Z,4.95
2018-02-25T09:29:56.064Z,4.28
2018-02-25T09:31:01.456Z,5.03
2018-02-25T09:32:06.841Z,4.30
2018-02-25T09:33:11.510Z,4.32
2018-02-25T09:34:16.254Z,4.50
2018-02-25T09:35:21.564Z,4.72
2018-02-25T09:36:26.039Z,3.15
2018-02-25T09:37:31.136Z,3.80
2018-02-25T09:38:35.856Z,4.00
2018-02-25T09:39:41.673Z,4.00
2018-02-25T09:40:46.387Z,4.10
2018-02-25T09:41:50.606Z,3.92
2018-02-25T09:42:55.063Z,4.55
2018-02-25T09:43:59.511Z,4.35
2018-02-25T09:45:04.288Z,4.68
2018-02-25T09:46:08.789Z,4.10
2018-02-25T09:47:13.993Z,4.25
2018-02-25T09:48:19.200Z,3.97
2018-02-25T09:49:23.640Z,3.50
2018-02-25T09:50:28.834Z,4.50
2018-02-25T09:51:33.267Z,4.03
2018-02-25T09:52:38.491Z,3.55
2018-02-25T09:53:42.917Z,5.03
2018-02-25T09:54:48.106Z,3.40
2018-02-25T09:55:52.555Z,3.08
2018-02-25T09:56:57.847Z,3.15
2018-02-25T09:58:02.348Z,3.33
2018-02-25T09:59:06.909Z,2.72
2018-02-25T10:00:11.463Z,3.40
2018-02-25T10:01:16.005Z,2.70
2018-02-25T10:02:20.853Z,4.10
2018-02-25T10:03:26.126Z,3.37
2018-02-25T10:04:30.727Z,4.80
2018-02-25T10:05:35.210Z,4.55
2018-02-25T10:06:39.670Z,3.37
2018-02-25T10:07:44.477Z,3.75
2018-02-25T10:08:49.279Z,2.87
2018-02-25T10:09:53.856Z,3.37
2018-02-25T10:10:58.973Z,2.78
2018-02-25T10:12:03.574Z,2.67
2018-02-25T10:13:08.026Z,3.03
2018-02-25T10:14:13.362Z,3.20
2018-02-25T10:15:17.820Z,3.20
2018-02-25T10:16:22.275Z,3.17
2018-02-25T10:17:27.769Z,3.10
2018-02-25T10:18:32.401Z,2.08
2018-02-25T10:19:37.699Z,1.60
2018-02-25T10:20:42.398Z,2.00
2018-02-25T10:21:48.077Z,2.58
2018-02-25T10:22:52.672Z,2.37
2018-02-25T10:23:57.299Z,2.45
2018-02-25T10:25:01.910Z,2.53
2018-02-25T10:26:06.530Z,2.90
2018-02-25T10:27:11.184Z,2.85
2018-02-25T10:28:16.491Z,2.85
2018-02-25T10:29:21.134Z,3.22
2018-02-25T10:30:26.970Z,3.20
2018-02-25T10:31:32.351Z,1.80
2018-02-25T10:32:37.599Z,2.72
2018-02-25T10:33:42.099Z,2.75
2018-02-25T10:34:46.550Z,2.10
2018-02-25T10:35:51.235Z,1.90
2018-02-25T10:36:55.822Z,2.30
2018-02-25T10:38:00.408Z,1.48
2018-02-25T10:39:04.427Z,2.58
2018-02-25T10:40:09.168Z,1.90
2018-02-25T10:41:14.674Z,2.05
2018-02-25T10:42:19.177Z,2.10
2018-02-25T10:43:24.539Z,2.20
2018-02-25T10:44:29.291Z,1.80
2018-02-25T10:45:33.895Z,1.62
2018-02-25T10:46:38.624Z,1.98
2018-02-25T10:47:43.400Z,1.23
2018-02-25T10:48:47.892Z,1.40
2018-02-25T10:49:53.126Z,1.83
2018-02-25T10:50:58.640Z,1.62
2018-02-25T10:52:03.459Z,1.30
2018-02-25T10:53:07.943Z,2.45
2018-02-25T10:54:12.373Z,1.62
2018-02-25T10:55:17.716Z,2.25
2018-02-25T10:56:22.356Z,2.08
2018-02-25T10:57:26.856Z,2.47
2018-02-25T10:58:32.090Z,2.30
2018-02-25T10:59:36.608Z,3.85
2018-02-25T11:00:41.027Z,2.72
2018-02-25T11:01:45.531Z,2.20
2018-02-25T11:02:52.056Z,2.80
2018-02-25T11:03:57.439Z,2.45
2018-02-25T11:05:02.094Z,2.00
2018-02-25T11:06:06.918Z,2.75
2018-02-25T11:07:12.747Z,2.55
2018-02-25T11:08:17.640Z,2.65
2018-02-25T11:09:22.978Z,2.85
2018-02-25T11:10:27.757Z,2.35
2018-02-25T11:11:32.420Z,2.55
2018-02-25T11:12:37.122Z,2.37
2018-02-25T11:13:42.189Z,2.80
2018-02-25T11:14:47.535Z,3.75
2018-02-25T11:15:52.182Z,2.90
2018-02-25T11:16:57.814Z,2.97
2018-02-25T11:18:02.609Z,1.77
2018-02-25T11:19:07.224Z,2.10
2018-02-25T11:20:11.825Z,2.20
2018-02-25T11:21:17.234Z,2.20
2018-02-25T11:22:21.877Z,2.67
2018-02-25T11:23:27.655Z,2.03
2018-02-25T11:24:33.305Z,2.30
2018-02-25T11:25:38.054Z,1.83
2018-02-25T11:26:42.944Z,2.30
2018-02-25T11:27:47.898Z,1.95
2018-02-25T11:28:52.442Z,2.87
2018-02-25T11:29:57.870Z,11.30
2018-02-25T11:31:03.168Z,2.80
2018-02-25T11:32:07.954Z,2.70
2018-02-25T11:33:12.686Z,2.55
2018-02-25T11:34:17.351Z,2.80
2018-02-25T11:35:22.789Z,1.92
2018-02-25T11:36:27.436Z,2.58
2018-02-25T11:37:32.154Z,3.50
2018-02-25T11:38:36.818Z,2.30
2018-02-25T11:39:41.516Z,2.65
2018-02-25T11:40:46.298Z,1.65
2018-02-25T11:41:50.842Z,1.80
2018-02-25T11:42:56.380Z,2.15
2018-02-25T11:44:01.061Z,2.03
2018-02-25T11:45:05.691Z,2.87
2018-02-25T11:46:10.302Z,2.15
2018-02-25T11:47:14.919Z,2.45
2018-02-25T11:48:20.636Z,2.05
2018-02-25T11:49:25.316Z,1.90
2018-02-25T11:50:30.221Z,1.62
2018-02-25T11:51:34.961Z,1.62
2018-02-25T11:52:40.458Z,1.87
2018-02-25T11:53:45.029Z,2.78
2018-02-25T11:54:50.717Z,2.10
2018-02-25T11:55:56.210Z,2.80
2018-02-25T11:57:02.309Z,1.77
2018-02-25T11:58:06.965Z,2.80
2018-02-25T11:59:12.456Z,2.05
2018-02-25T12:00:17.182Z,2.53
2018-02-25T12:01:22.951Z,2.50
2018-02-25T12:02:27.664Z,2.35
2018-02-25T12:03:32.352Z,2.30
2018-02-25T12:04:37.806Z,3.08
2018-02-25T12:05:42.461Z,1.25
2018-02-25T12:06:47.273Z,2.65
2018-02-25T12:07:53.569Z,1.65
2018-02-25T12:08:58.192Z,1.62
2018-02-25T12:10:02.918Z,2.37
2018-02-25T12:11:07.903Z,2.20
2018-02-25T12:12:12.809Z,1.92
2018-02-25T12:13:18.284Z,2.22
2018-02-25T12:14:23.196Z,2.17
2018-02-25T12:15:28.977Z,3.55
2018-02-25T12:16:33.685Z,2.30
2018-02-25T12:17:39.165Z,1.40
2018-02-25T12:18:44.433Z,2.72
2018-02-25T12:19:49.100Z,2.00
2018-02-25T12:20:53.890Z,2.53
2018-02-25T12:21:58.602Z,2.50
2018-02-25T12:23:03.205Z,1.20
2018-02-25T12:24:07.831Z,1.42
2018-02-25T12:25:13.259Z,2.17
2018-02-25T12:26:18.269Z,2.33
2018-02-25T12:27:23.304Z,2.28
2018-02-25T12:28:28.964Z,2.00
2018-02-25T12:29:33.719Z,2.75
2018-02-25T12:30:38.361Z,2.62
2018-02-25T12:31:42.993Z,2.60
2018-02-25T12:32:49.262Z,1.55
2018-02-25T12:33:53.993Z,2.35
2018-02-25T12:34:58.745Z,2.22
2018-02-25T12:36:03.667Z,1.80
2018-02-25T12:37:08.323Z,3.03
2018-02-25T12:38:12.975Z,1.95
2018-02-25T12:39:18.743Z,2.37
2018-02-25T12:40:24.124Z,2.47
2018-02-25T12:41:28.689Z,2.67
2018-02-25T12:42:33.328Z,2.10
2018-02-25T12:43:38.082Z,2.40
2018-02-25T12:44:42.717Z,2.00
2018-02-25T12:45:47.298Z,2.33
2018-02-25T12:46:51.939Z,2.33
2018-02-25T12:47:57.226Z,2.22
2018-02-25T12:49:02.064Z,2.45
2018-02-25T12:50:07.602Z,1.90
2018-02-25T12:51:12.265Z,2.60
2018-02-25T12:52:16.853Z,2.25
2018-02-25T12:53:22.327Z,1.85
2018-02-25T12:54:27.044Z,2.58
2018-02-25T12:55:31.693Z,2.37
2018-02-25T12:56:37.366Z,2.37
2018-02-25T12:57:42.607Z,2.50
2018-02-25T12:58:47.254Z,1.85
2018-02-25T12:59:51.934Z,2.70
2018-02-25T13:00:56.608Z,2.00
2018-02-25T13:02:02.650Z,3.50
2018-02-25T13:03:07.309Z,2.25
2018-02-25T13:04:12.023Z,2.37
2018-02-25T13:05:16.684Z,2.35
2018-02-25T13:06:21.380Z,2.28
2018-02-25T13:07:26.136Z,2.28
2018-02-25T13:08:31.285Z,2.65
2018-02-25T13:09:35.891Z,1.98
2018-02-25T13:10:40.574Z,1.70
2018-02-25T13:11:45.220Z,1.40
2018-02-25T13:12:49.938Z,2.20
2018-02-25T13:13:54.643Z,2.50
2018-02-25T13:14:59.346Z,2.20
2018-02-25T13:16:03.798Z,2.53
2018-02-25T13:17:09.139Z,2.47
2018-02-25T13:18:13.788Z,2.00
2018-02-25T13:19:19.199Z,2.10
2018-02-25T13:20:24.749Z,1.83
2018-02-25T13:21:29.496Z,1.70
2018-02-25T13:22:34.107Z,2.47
2018-02-25T13:23:39.168Z,2.05
2018-02-25T13:24:44.202Z,2.40
2018-02-25T13:25:48.936Z,2.28
2018-02-25T13:26:53.748Z,2.22
2018-02-25T13:27:58.357Z,1.80
2018-02-25T13:29:03.814Z,1.98
2018-02-25T13:30:09.366Z,2.22
2018-02-25T13:31:13.870Z,2.20
2018-02-25T13:32:18.380Z,2.30
2018-02-25T13:33:23.072Z,2.80
2018-02-25T13:34:27.836Z,2.35
2018-02-25T13:35:32.670Z,1.95
2018-02-25T13:36:37.373Z,1.98
2018-02-25T13:37:42.245Z,0.90
2018-02-25T13:38:48.672Z,1.45
2018-02-25T13:39:53.338Z,1.83
2018-02-25T13:40:57.975Z,2.05
2018-02-25T13:42:03.645Z,1.85
2018-02-25T13:43:09.106Z,2.33
2018-02-25T13:44:14.507Z,1.90
2018-02-25T13:45:19.212Z,2.10
2018-02-25T13:46:25.072Z,2.10
2018-02-25T13:47:29.671Z,1.75
2018-02-25T13:48:34.358Z,1.35
2018-02-25T13:49:39.036Z,2.03
2018-02-25T13:50:43.759Z,1.58
2018-02-25T13:51:48.422Z,1.85
2018-02-25T13:52:53.652Z,1.85
2018-02-25T13:53:58.283Z,3.20
2018-02-25T13:55:03.109Z,2.28
2018-02-25T13:56:07.690Z,1.85
2018-02-25T13:57:12.257Z,1.55
2018-02-25T13:58:16.859Z,2.45
2018-02-25T13:59:21.400Z,2.30
2018-02-25T14:00:25.828Z,1.70
2018-02-25T14:01:31.167Z,2.22
2018-02-25T14:02:35.711Z,1.83
2018-02-25T14:03:40.287Z,1.20
2018-02-25T14:04:44.768Z,1.98
2018-02-25T14:05:49.345Z,1.37
2018-02-25T14:06:53.840Z,1.35
2018-02-25T14:07:58.505Z,2.37
2018-02-25T14:09:02.972Z,2.25
2018-02-25T14:10:07.415Z,1.90
2018-02-25T14:11:11.862Z,1.20
2018-02-25T14:12:17.089Z,1.10
2018-02-25T14:13:22.293Z,2.08
2018-02-25T14:14:26.899Z,1.50
2018-02-25T14:15:31.346Z,4.20
2018-02-25T14:16:36.549Z,1.90
2018-02-25T14:17:41.025Z,1.90
2018-02-25T14:18:45.472Z,1.98
2018-02-25T14:19:49.922Z,1.20
2018-02-25T14:20:54.363Z,2.20
2018-02-25T14:21:58.792Z,2.28